createdAt,value
2017-08-23T00:00:29.185Z,15.70
2017-08-23T00:02:57.750Z,15.70
2017-08-23T00:05:25.431Z,15.70
2017-08-23T00:07:53.075Z,15.70
2017-08-23T00:10:20.753Z,15.60
2017-08-23T00:12:48.406Z,15.60
2017-08-23T00:15:16.104Z,15.60
2017-08-23T00:17:43.765Z,15.60
2017-08-23T00:20:11.398Z,15.60
2017-08-23T00:22:39.086Z,15.50
2017-08-23T00:25:06.747Z,15.50
2017-08-23T00:27:34.429Z,15.50
2017-08-23T00:30:02.061Z,15.40
2017-08-23T00:32:29.735Z,15.40
2017-08-23T00:34:57.523Z,15.40
2017-08-23T00:37:25.159Z,15.40
2017-08-23T00:39:52.845Z,15.30
2017-08-23T00:42:20.507Z,15.30
2017-08-23T00:44:48.209Z,15.30
2017-08-23T00:47:15.873Z,15.30
2017-08-23T00:49:43.530Z,15.20
2017-08-23T00:52:11.268Z,15.20
2017-08-23T00:54:38.909Z,15.20
2017-08-23T00:57:06.620Z,15.10
2017-08-23T00:59:34.267Z,15.10
2017-08-23T01:02:01.948Z,15.10
2017-08-23T01:04:29.655Z,15.00
2017-08-23T01:06:57.309Z,15.00
2017-08-23T01:09:24.983Z,15.00
2017-08-23T01:11:52.618Z,15.00
2017-08-23T01:14:20.275Z,15.00
2017-08-23T01:16:47.963Z,15.00
2017-08-23T01:19:15.609Z,15.00
2017-08-23T01:21:43.319Z,14.90
2017-08-23T01:24:10.986Z,14.90
2017-08-23T01:26:38.646Z,14.90
2017-08-23T01:29:06.323Z,14.90
2017-08-23T01:31:33.978Z,14.80
2017-08-23T01:34:01.619Z,14.90
2017-08-23T01:36:29.317Z,14.80
2017-08-23T01:38:56.982Z,14.80
2017-08-23T01:41:24.627Z,14.80
2017-08-23T01:43:52.300Z,14.80
2017-08-23T01:46:19.956Z,14.80
2017-08-23T01:48:47.651Z,14.80
2017-08-23T01:51:15.307Z,14.80
2017-08-23T01:53:43.006Z,14.70
2017-08-23T01:56:10.655Z,14.70
2017-08-23T01:58:38.341Z,14.70
2017-08-23T02:01:06.001Z,14.70
2017-08-23T02:03:33.707Z,14.70
2017-08-23T02:06:01.348Z,14.70
2017-08-23T02:08:29.009Z,14.60
2017-08-23T02:10:56.682Z,14.60
2017-08-23T02:13:24.361Z,14.60
2017-08-23T02:15:52.057Z,14.60
2017-08-23T02:18:19.720Z,14.60
2017-08-23T02:20:47.405Z,14.50
2017-08-23T02:23:15.034Z,14.50
2017-08-23T02:25:42.731Z,14.50
2017-08-23T02:28:10.381Z,14.50
2017-08-23T02:30:38.033Z,14.50
2017-08-23T02:33:05.702Z,14.40
2017-08-23T02:35:33.359Z,14.40
2017-08-23T02:38:01.039Z,14.40
2017-08-23T02:40:28.685Z,14.40
2017-08-23T02:42:56.321Z,14.30
2017-08-23T02:45:24.043Z,14.30
2017-08-23T02:47:51.701Z,14.30
2017-08-23T02:50:19.405Z,14.30
2017-08-23T02:52:47.059Z,14.30
2017-08-23T02:55:14.750Z,14.20
2017-08-23T02:57:42.433Z,14.20
2017-08-23T03:00:10.124Z,14.20
2017-08-23T03:02:37.804Z,14.20
2017-08-23T03:05:05.480Z,14.10
2017-08-23T03:07:33.205Z,14.10
2017-08-23T03:10:01.036Z,14.10
2017-08-23T03:12:28.697Z,14.10
2017-08-23T03:14:56.354Z,14.10
2017-08-23T03:17:24.062Z,14.00
2017-08-23T03:19:51.724Z,14.00
2017-08-23T03:22:19.421Z,14.00
2017-08-23T03:24:47.067Z,14.00
2017-08-23T03:27:14.735Z,14.00
2017-08-23T03:29:42.398Z,14.00
2017-08-23T03:32:10.101Z,14.00
2017-08-23T03:34:37.741Z,13.90
2017-08-23T03:37:05.437Z,13.90
2017-08-23T03:39:33.118Z,13.90
2017-08-23T03:42:00.809Z,13.90
2017-08-23T03:44:28.457Z,13.90
2017-08-23T03:46:56.113Z,13.80
2017-08-23T03:49:23.780Z,13.80
2017-08-23T03:51:51.451Z,13.80
2017-08-23T03:54:19.139Z,13.80
2017-08-23T03:56:46.807Z,13.80
2017-08-23T03:59:14.494Z,13.70
2017-08-23T04:01:42.173Z,13.80
2017-08-23T04:04:09.838Z,13.70
2017-08-23T04:06:37.542Z,13.70
2017-08-23T04:09:05.201Z,13.70
2017-08-23T04:11:32.878Z,13.70
2017-08-23T04:14:00.657Z,13.60
2017-08-23T04:16:28.330Z,13.60
2017-08-23T04:18:56.025Z,13.60
2017-08-23T04:21:23.681Z,13.60
2017-08-23T04:23:51.365Z,13.60
2017-08-23T04:26:19.033Z,13.60
2017-08-23T04:28:46.692Z,13.50
2017-08-23T04:31:14.373Z,13.50
2017-08-23T04:33:42.032Z,13.50
2017-08-23T04:36:09.695Z,13.40
2017-08-23T04:38:37.348Z,13.40
2017-08-23T04:41:05.019Z,13.40
2017-08-23T04:43:32.681Z,13.40
2017-08-23T04:46:00.355Z,13.40
2017-08-23T04:48:28.032Z,13.40
2017-08-23T04:50:55.693Z,13.40
2017-08-23T04:53:23.359Z,13.40
2017-08-23T04:55:51.021Z,13.40
2017-08-23T04:58:18.720Z,13.40
2017-08-23T05:00:46.382Z,13.40
2017-08-23T05:03:14.044Z,13.40
2017-08-23T05:05:41.742Z,13.40
2017-08-23T05:08:09.387Z,13.40
2017-08-23T05:10:37.075Z,13.40
2017-08-23T05:13:04.722Z,13.30
2017-08-23T05:15:32.360Z,13.30
2017-08-23T05:18:00.030Z,13.30
2017-08-23T05:20:27.688Z,13.30
2017-08-23T05:22:55.387Z,13.40
2017-08-23T05:25:23.031Z,13.40
2017-08-23T05:27:50.702Z,13.30
2017-08-23T05:30:18.363Z,13.30
2017-08-23T05:32:46.141Z,13.40
2017-08-23T05:35:13.807Z,13.30
2017-08-23T05:37:41.451Z,13.40
2017-08-23T05:40:09.135Z,13.30
2017-08-23T05:42:36.796Z,13.40
2017-08-23T05:45:04.473Z,13.40
2017-08-23T05:47:32.148Z,13.40
2017-08-23T05:49:59.844Z,13.40
2017-08-23T05:52:27.545Z,13.40
2017-08-23T05:54:55.206Z,13.50
2017-08-23T05:57:22.898Z,13.50
2017-08-23T05:59:50.566Z,13.60
2017-08-23T06:02:18.208Z,13.60
2017-08-23T06:04:45.914Z,13.60
2017-08-23T06:07:13.547Z,13.70
2017-08-23T06:09:41.233Z,13.70
2017-08-23T06:12:08.892Z,13.80
2017-08-23T06:14:36.599Z,13.80
2017-08-23T06:17:04.252Z,13.90
2017-08-23T06:19:31.899Z,13.90
2017-08-23T06:21:59.622Z,14.00
2017-08-23T06:24:27.290Z,14.00
2017-08-23T06:26:54.986Z,14.00
2017-08-23T06:29:22.639Z,14.10
2017-08-23T06:31:50.292Z,14.20
2017-08-23T06:34:17.984Z,14.30
2017-08-23T06:36:45.643Z,14.40
2017-08-23T06:39:13.353Z,14.40
2017-08-23T06:41:41.042Z,14.50
2017-08-23T06:44:08.697Z,14.60
2017-08-23T06:46:36.396Z,14.80
2017-08-23T06:49:04.053Z,14.90
2017-08-23T06:51:31.799Z,15.00
2017-08-23T06:53:59.452Z,15.10
2017-08-23T06:56:27.127Z,15.20
2017-08-23T06:58:54.782Z,15.30
2017-08-23T07:01:22.440Z,15.50
2017-08-23T07:03:50.127Z,15.60
2017-08-23T07:06:17.772Z,15.70
2017-08-23T07:08:45.446Z,15.90
2017-08-23T07:11:13.122Z,16.10
2017-08-23T07:13:40.769Z,16.20
2017-08-23T07:16:08.450Z,16.30
2017-08-23T07:18:36.096Z,16.40
2017-08-23T07:21:03.789Z,16.50
2017-08-23T07:23:31.449Z,16.70
2017-08-23T07:25:59.178Z,16.90
2017-08-23T07:28:26.828Z,17.00
2017-08-23T07:30:54.506Z,17.10
2017-08-23T07:33:22.193Z,17.20
2017-08-23T07:35:49.845Z,17.40
2017-08-23T07:38:17.524Z,17.50
2017-08-23T07:40:45.201Z,17.50
2017-08-23T07:43:12.862Z,17.50
2017-08-23T07:45:40.525Z,17.50
2017-08-23T07:48:08.251Z,17.60
2017-08-23T07:50:35.903Z,17.70
2017-08-23T07:53:03.650Z,17.90
2017-08-23T07:55:31.334Z,18.10
2017-08-23T07:57:58.993Z,18.20
2017-08-23T08:00:28.442Z,18.40
2017-08-23T08:02:56.105Z,18.50
2017-08-23T08:05:24.831Z,18.50
2017-08-23T08:07:52.510Z,18.60
2017-08-23T08:10:20.176Z,18.60
2017-08-23T08:12:47.871Z,18.60
2017-08-23T08:15:15.539Z,18.60
2017-08-23T08:17:43.182Z,18.60
2017-08-23T08:20:10.860Z,18.70
2017-08-23T08:22:38.507Z,18.70
2017-08-23T08:25:06.189Z,18.80
2017-08-23T08:27:33.842Z,18.90
2017-08-23T08:30:01.549Z,19.10
2017-08-23T08:32:29.200Z,19.30
2017-08-23T08:34:56.867Z,19.30
2017-08-23T08:37:24.540Z,19.40
2017-08-23T08:39:52.219Z,19.40
2017-08-23T08:42:19.905Z,19.60
2017-08-23T08:44:47.570Z,19.80
2017-08-23T08:47:15.314Z,20.00
2017-08-23T08:49:42.998Z,20.10
2017-08-23T08:52:10.759Z,20.20
2017-08-23T08:54:38.450Z,20.40
2017-08-23T08:57:06.130Z,20.50
2017-08-23T08:59:33.815Z,20.50
2017-08-23T09:02:01.456Z,20.60
2017-08-23T09:04:29.140Z,20.90
2017-08-23T09:06:56.810Z,21.30
2017-08-23T09:09:24.459Z,21.50
2017-08-23T09:11:52.165Z,21.60
2017-08-23T09:14:19.828Z,21.70
2017-08-23T09:16:47.505Z,21.70
2017-08-23T09:19:15.154Z,21.70
2017-08-23T09:21:42.822Z,21.80
2017-08-23T09:24:10.463Z,22.00
2017-08-23T09:26:38.107Z,22.20
2017-08-23T09:29:05.782Z,22.50
2017-08-23T09:31:33.433Z,22.90
2017-08-23T09:34:01.105Z,23.10
2017-08-23T09:36:28.775Z,23.20
2017-08-23T09:38:56.468Z,23.20
2017-08-23T09:41:24.124Z,23.10
2017-08-23T09:43:52.523Z,23.10
2017-08-23T09:46:20.244Z,23.10
2017-08-23T09:48:47.921Z,23.10
2017-08-23T09:51:15.616Z,23.10
2017-08-23T09:53:43.260Z,23.10
2017-08-23T09:56:10.935Z,23.20
2017-08-23T09:58:38.643Z,23.30
2017-08-23T10:01:06.280Z,23.30
2017-08-23T10:03:33.979Z,23.30
2017-08-23T10:06:01.625Z,23.30
2017-08-23T10:08:29.307Z,23.40
2017-08-23T10:10:56.995Z,23.50
2017-08-23T10:13:24.645Z,23.70
2017-08-23T10:15:53.089Z,23.80
2017-08-23T10:18:20.737Z,23.80
2017-08-23T10:20:48.383Z,23.90
2017-08-23T10:23:16.058Z,23.90
2017-08-23T10:25:43.703Z,24.00
2017-08-23T10:28:11.410Z,24.00
2017-08-23T10:30:39.056Z,24.00
2017-08-23T10:33:06.701Z,24.10
2017-08-23T10:35:34.370Z,24.10
2017-08-23T10:38:02.021Z,24.30
2017-08-23T10:40:29.717Z,24.40
2017-08-23T10:42:57.367Z,24.50
2017-08-23T10:45:25.007Z,24.60
2017-08-23T10:47:52.898Z,24.70
2017-08-23T10:50:20.592Z,24.80
2017-08-23T10:52:48.422Z,25.00
2017-08-23T10:55:16.187Z,25.10
2017-08-23T10:57:43.885Z,25.10
2017-08-23T11:00:11.716Z,25.20
2017-08-23T11:02:39.415Z,25.30
2017-08-23T11:05:07.159Z,25.30
2017-08-23T11:07:34.817Z,25.30
2017-08-23T11:10:02.472Z,25.30
2017-08-23T11:12:30.229Z,25.30
2017-08-23T11:14:57.995Z,25.50
2017-08-23T11:17:25.755Z,25.60
2017-08-23T11:19:53.522Z,25.70
2017-08-23T11:22:21.180Z,25.80
2017-08-23T11:24:48.973Z,26.00
2017-08-23T11:27:16.810Z,26.00
2017-08-23T11:29:44.575Z,26.20
2017-08-23T11:32:12.256Z,26.30
2017-08-23T11:34:39.920Z,26.40
2017-08-23T11:37:07.768Z,26.50
2017-08-23T11:39:35.534Z,26.60
2017-08-23T11:42:03.402Z,26.70
2017-08-23T11:44:31.163Z,26.80
2017-08-23T11:46:59.030Z,26.90
2017-08-23T11:49:26.803Z,27.00
2017-08-23T11:51:54.558Z,27.10
2017-08-23T11:54:22.321Z,27.10
2017-08-23T11:56:50.085Z,27.10
2017-08-23T11:59:17.857Z,27.20
2017-08-23T12:01:45.750Z,27.30
2017-08-23T12:04:13.588Z,27.30
2017-08-23T12:06:41.277Z,27.30
2017-08-23T12:09:09.113Z,27.30
2017-08-23T12:11:36.981Z,27.30
2017-08-23T12:14:04.744Z,27.30
2017-08-23T12:16:32.428Z,27.30
2017-08-23T12:19:00.096Z,27.40
2017-08-23T12:21:27.829Z,27.40
2017-08-23T12:23:55.700Z,27.50
2017-08-23T12:26:23.359Z,27.60
2017-08-23T12:28:51.052Z,27.60
2017-08-23T12:31:18.784Z,27.70
2017-08-23T12:33:46.467Z,27.60
2017-08-23T12:36:14.220Z,27.60
2017-08-23T12:38:41.979Z,27.70
2017-08-23T12:41:09.843Z,27.70
2017-08-23T12:43:37.498Z,27.70
2017-08-23T12:46:05.271Z,27.70
2017-08-23T12:48:33.033Z,27.70
2017-08-23T12:51:00.798Z,27.70
2017-08-23T12:53:28.666Z,27.70
2017-08-23T12:55:56.428Z,27.70
2017-08-23T12:58:24.411Z,27.70
2017-08-23T13:00:52.279Z,27.70
2017-08-23T13:03:20.028Z,27.80
2017-08-23T13:05:47.784Z,27.90
2017-08-23T13:08:15.494Z,27.90
2017-08-23T13:10:43.190Z,27.90
2017-08-23T13:13:10.849Z,27.90
2017-08-23T13:15:38.483Z,27.90
2017-08-23T13:18:06.153Z,27.90
2017-08-23T13:20:33.807Z,27.90
2017-08-23T13:23:01.491Z,27.90
2017-08-23T13:25:29.144Z,27.90
2017-08-23T13:27:56.814Z,27.90
2017-08-23T13:30:24.501Z,27.90
2017-08-23T13:32:52.162Z,28.00
2017-08-23T13:35:19.846Z,28.00
2017-08-23T13:37:47.526Z,28.00
2017-08-23T13:40:15.172Z,28.00
2017-08-23T13:42:42.849Z,28.00
2017-08-23T13:45:10.532Z,28.00
2017-08-23T13:47:38.209Z,28.00
2017-08-23T13:50:05.856Z,27.90
2017-08-23T13:52:33.539Z,27.90
2017-08-23T13:55:01.210Z,27.90
2017-08-23T13:57:28.872Z,27.90
2017-08-23T13:59:56.554Z,27.80
2017-08-23T14:02:24.192Z,27.80
2017-08-23T14:04:51.880Z,27.80
2017-08-23T14:07:19.530Z,27.80
2017-08-23T14:09:47.158Z,27.80
2017-08-23T14:12:14.828Z,27.70
2017-08-23T14:14:42.486Z,27.60
2017-08-23T14:17:10.158Z,27.60
2017-08-23T14:19:37.801Z,27.40
2017-08-23T14:22:05.507Z,27.40
2017-08-23T14:24:33.238Z,27.30
2017-08-23T14:27:00.864Z,27.30
2017-08-23T14:29:28.567Z,27.30
2017-08-23T14:31:56.216Z,27.20
2017-08-23T14:34:23.903Z,27.20
2017-08-23T14:36:51.576Z,27.10
2017-08-23T14:39:19.240Z,27.10
2017-08-23T14:41:46.928Z,27.10
2017-08-23T14:44:15.483Z,27.10
2017-08-23T14:46:43.219Z,27.00
2017-08-23T14:49:10.906Z,27.00
2017-08-23T14:51:38.572Z,27.00
2017-08-23T14:54:06.259Z,26.90
2017-08-23T14:56:33.907Z,26.80
2017-08-23T14:59:01.591Z,26.80
2017-08-23T15:01:29.373Z,26.70
2017-08-23T15:03:57.089Z,26.60
2017-08-23T15:06:24.785Z,26.50
2017-08-23T15:08:52.524Z,26.50
2017-08-23T15:11:20.388Z,26.50
2017-08-23T15:13:48.150Z,26.40
2017-08-23T15:16:16.018Z,26.40
2017-08-23T15:18:43.658Z,26.30
2017-08-23T15:21:11.444Z,26.30
2017-08-23T15:23:40.171Z,26.30
2017-08-23T15:26:08.115Z,26.20
2017-08-23T15:28:36.040Z,26.10
2017-08-23T15:31:03.763Z,26.10
2017-08-23T15:33:31.492Z,26.00
2017-08-23T15:35:59.183Z,25.90
2017-08-23T15:38:26.918Z,25.80
2017-08-23T15:40:54.783Z,25.80
2017-08-23T15:43:22.481Z,25.80
2017-08-23T15:45:50.316Z,25.80
2017-08-23T15:48:18.107Z,25.70
2017-08-23T15:50:46.679Z,25.70
2017-08-23T15:53:15.365Z,25.70
2017-08-23T15:55:43.232Z,25.60
2017-08-23T15:58:11.095Z,25.60
2017-08-23T16:00:39.065Z,25.60
2017-08-23T16:03:06.934Z,25.60
2017-08-23T16:05:35.206Z,25.50
2017-08-23T16:08:03.082Z,25.50
2017-08-23T16:10:30.966Z,25.50
2017-08-23T16:12:59.018Z,25.40
2017-08-23T16:15:27.299Z,25.40
2017-08-23T16:17:55.406Z,25.40
2017-08-23T16:20:23.312Z,25.30
2017-08-23T16:22:51.203Z,25.30
2017-08-23T16:25:19.608Z,25.30
2017-08-23T16:27:47.439Z,25.30
2017-08-23T16:30:15.720Z,25.20
2017-08-23T16:32:43.586Z,25.10
2017-08-23T16:35:11.450Z,25.10
2017-08-23T16:37:39.427Z,25.10
2017-08-23T16:40:07.395Z,25.00
2017-08-23T16:42:35.361Z,25.00
2017-08-23T16:45:03.242Z,25.00
2017-08-23T16:47:31.102Z,25.00
2017-08-23T16:49:59.069Z,25.00
2017-08-23T16:52:26.931Z,24.90
2017-08-23T16:54:54.793Z,24.90
2017-08-23T16:57:22.668Z,24.80
2017-08-23T16:59:50.532Z,24.80
2017-08-23T17:02:18.510Z,24.80
2017-08-23T17:04:46.476Z,24.70
2017-08-23T17:07:14.439Z,24.60
2017-08-23T17:09:42.432Z,24.60
2017-08-23T17:12:10.390Z,24.60
2017-08-23T17:14:38.354Z,24.60
2017-08-23T17:17:06.521Z,24.50
2017-08-23T17:19:34.490Z,24.50
2017-08-23T17:22:02.357Z,24.50
2017-08-23T17:24:30.226Z,24.40
2017-08-23T17:26:58.188Z,24.30
2017-08-23T17:29:26.059Z,24.30
2017-08-23T17:31:54.518Z,24.20
2017-08-23T17:34:22.399Z,24.20
2017-08-23T17:36:50.351Z,24.20
2017-08-23T17:39:18.341Z,24.10
2017-08-23T17:41:46.210Z,24.10
2017-08-23T17:44:14.792Z,24.00
2017-08-23T17:46:42.667Z,23.90
2017-08-23T17:49:10.524Z,23.90
2017-08-23T17:51:38.499Z,23.90
2017-08-23T17:56:50.897Z,23.80
2017-08-23T17:59:18.754Z,23.70
2017-08-23T18:01:46.742Z,23.60
2017-08-23T18:04:14.733Z,23.60
2017-08-23T18:06:42.589Z,23.50
2017-08-23T18:09:10.465Z,23.40
2017-08-23T18:11:38.331Z,23.40
2017-08-23T18:14:06.202Z,23.40
2017-08-23T18:16:33.972Z,23.30
2017-08-23T18:19:01.817Z,23.30
2017-08-23T18:21:29.637Z,23.20
2017-08-23T18:23:57.380Z,23.10
2017-08-23T18:26:25.151Z,23.10
2017-08-23T18:28:52.975Z,23.10
2017-08-23T18:31:21.263Z,23.00
2017-08-23T18:33:49.441Z,22.90
2017-08-23T18:36:17.402Z,22.80
2017-08-23T18:38:45.683Z,22.80
2017-08-23T18:41:13.752Z,22.70
2017-08-23T18:43:42.987Z,22.60
2017-08-23T18:46:11.411Z,22.60
2017-08-23T18:48:39.896Z,22.50
2017-08-23T18:51:08.295Z,22.40
2017-08-23T18:53:38.083Z,22.40
2017-08-23T18:56:07.755Z,22.30
2017-08-23T18:58:35.886Z,22.20
2017-08-23T19:01:03.855Z,22.20
2017-08-23T19:03:38.082Z,22.10
2017-08-23T19:06:06.033Z,22.00
2017-08-23T19:08:35.967Z,21.90
2017-08-23T19:11:03.818Z,21.90
2017-08-23T19:13:31.687Z,21.90
2017-08-23T19:15:59.551Z,21.80
2017-08-23T19:18:27.220Z,21.70
2017-08-23T19:20:54.957Z,21.70
2017-08-23T19:23:22.841Z,21.60
2017-08-23T19:25:50.590Z,21.60
2017-08-23T19:28:18.415Z,21.50
2017-08-23T19:30:46.062Z,21.50
2017-08-23T19:33:13.886Z,21.40
2017-08-23T19:35:41.753Z,21.40
2017-08-23T19:38:09.512Z,21.30
2017-08-23T19:40:37.277Z,21.30
2017-08-23T19:43:05.044Z,21.20
2017-08-23T19:45:32.716Z,21.20
2017-08-23T19:48:00.389Z,21.10
2017-08-23T19:50:28.032Z,21.10
2017-08-23T19:52:55.703Z,21.00
2017-08-23T19:55:23.369Z,21.00
2017-08-23T19:57:51.011Z,20.90
2017-08-23T20:00:18.671Z,20.90
2017-08-23T20:02:46.312Z,20.80
2017-08-23T20:05:14.018Z,20.80
2017-08-23T20:07:41.659Z,20.70
2017-08-23T20:10:09.310Z,20.70
2017-08-23T20:12:36.980Z,20.70
2017-08-23T20:15:04.642Z,20.60
2017-08-23T20:17:32.343Z,20.60
2017-08-23T20:19:59.980Z,20.60
2017-08-23T20:22:27.625Z,20.50
2017-08-23T20:24:55.323Z,20.50
2017-08-23T20:27:22.971Z,20.50
2017-08-23T20:29:50.668Z,20.50
2017-08-23T20:32:18.333Z,20.50
2017-08-23T20:34:46.025Z,20.40
2017-08-23T20:37:13.671Z,20.30
2017-08-23T20:39:41.341Z,20.30
2017-08-23T20:42:09.036Z,20.20
2017-08-23T20:44:36.673Z,20.10
2017-08-23T20:47:04.365Z,20.10
2017-08-23T20:49:32.024Z,20.10
2017-08-23T20:51:59.811Z,20.00
2017-08-23T20:54:27.453Z,20.00
2017-08-23T20:56:55.300Z,20.00
2017-08-23T20:59:22.971Z,20.00
2017-08-23T21:01:50.630Z,19.90
2017-08-23T21:04:18.313Z,19.90
2017-08-23T21:06:45.977Z,19.90
2017-08-23T21:09:13.638Z,19.80
2017-08-23T21:11:41.307Z,19.80
2017-08-23T21:14:09.949Z,19.80
2017-08-23T21:16:37.633Z,19.80
2017-08-23T21:19:05.297Z,19.80
2017-08-23T21:21:32.998Z,19.80
2017-08-23T21:24:00.703Z,19.70
2017-08-23T21:26:28.375Z,19.70
2017-08-23T21:28:56.111Z,19.70
2017-08-23T21:31:23.769Z,19.60
2017-08-23T21:33:51.407Z,19.60
2017-08-23T21:36:19.123Z,19.60
2017-08-23T21:38:46.785Z,19.50
2017-08-23T21:41:14.480Z,19.50
2017-08-23T21:43:42.144Z,19.50
2017-08-23T21:46:09.787Z,19.50
2017-08-23T21:48:37.500Z,19.40
2017-08-23T21:51:05.132Z,19.40
2017-08-23T21:53:32.818Z,19.40
2017-08-23T21:56:00.477Z,19.40
2017-08-23T21:58:28.136Z,19.30
2017-08-23T22:00:55.812Z,19.30
2017-08-23T22:03:23.468Z,19.30
2017-08-23T22:05:51.144Z,19.20
2017-08-23T22:08:18.961Z,19.20
2017-08-23T22:10:46.792Z,19.20
2017-08-23T22:13:14.475Z,19.20
2017-08-23T22:15:42.123Z,19.10
2017-08-23T22:18:09.827Z,19.10
2017-08-23T22:20:37.458Z,19.10
2017-08-23T22:23:05.108Z,19.00
2017-08-23T22:25:32.778Z,19.00
2017-08-23T22:28:00.414Z,19.00
2017-08-23T22:30:28.115Z,18.90
2017-08-23T22:32:55.777Z,19.00
2017-08-23T22:35:23.410Z,18.90
2017-08-23T22:37:51.096Z,18.90
2017-08-23T22:40:18.739Z,18.90
2017-08-23T22:42:46.430Z,18.90
2017-08-23T22:45:14.059Z,18.90
2017-08-23T22:47:41.713Z,18.80
2017-08-23T22:50:09.409Z,18.80
2017-08-23T22:52:37.068Z,18.80
2017-08-23T22:55:04.753Z,18.80
2017-08-23T22:57:32.408Z,18.70
2017-08-23T23:00:00.053Z,18.70
2017-08-23T23:02:27.768Z,18.70
2017-08-23T23:04:55.434Z,18.70
2017-08-23T23:07:23.107Z,18.70
2017-08-23T23:09:50.789Z,18.60
2017-08-23T23:12:18.430Z,18.60
2017-08-23T23:14:46.244Z,18.60
2017-08-23T23:17:13.979Z,18.60
2017-08-23T23:19:41.845Z,18.60
2017-08-23T23:22:09.546Z,18.60
2017-08-23T23:24:37.271Z,18.60
2017-08-23T23:27:04.948Z,18.60
2017-08-23T23:29:32.696Z,18.50
2017-08-23T23:32:00.461Z,18.50
2017-08-23T23:34:28.228Z,18.50
2017-08-23T23:36:55.935Z,18.50
2017-08-23T23:39:23.754Z,18.50
2017-08-23T23:41:51.518Z,18.50
2017-08-23T23:44:19.281Z,18.50
2017-08-23T23:46:46.978Z,18.50
2017-08-23T23:49:14.811Z,18.50
2017-08-23T23:51:42.701Z,18.50
2017-08-23T23:54:11.271Z,18.50
2017-08-23T23:56:39.127Z,18.50
2017-08-23T23:59:06.892Z,18.50
